Time;durP1;ratioP1;P1;durP2;ratioP2;P2;SDS_P1;SDS_P2;PMS_P1;PMS_P2;Temp;Humidity;BMP_temperature;BMP_pressure;BME280_temperature;BME280_humidity;BME280_pressure;Samples;Min_cycle;Max_cycle;Signal;HPM_P1;HPM_P2
2021/08/13 00:01:06;;;;;;;6.55;1.70;;;21.10;56.40;;;;;;5069904;28;20461;-76
2021/08/13 00:03:32;;;;;;;8.23;1.63;;;21.00;55.90;;;;;;5087985;28;20522;-76
2021/08/13 00:05:58;;;;;;;3.47;1.63;;;21.00;56.70;;;;;;5069261;28;20016;-76
2021/08/13 00:08:23;;;;;;;3.80;1.48;;;21.00;57.20;;;;;;5069521;28;20130;-76
2021/08/13 00:10:50;;;;;;;3.20;1.30;;;20.80;57.60;;;;;;5087542;28;20097;-75
2021/08/13 00:13:16;;;;;;;2.53;1.33;;;20.70;58.00;;;;;;5090035;28;20637;-76
2021/08/13 00:15:42;;;;;;;2.40;1.38;;;20.70;58.20;;;;;;5072959;28;20028;-76
2021/08/13 00:18:07;;;;;;;2.63;1.63;;;20.70;58.20;;;;;;5072953;28;20043;-76
2021/08/13 00:20:34;;;;;;;5.65;1.45;;;20.60;58.40;;;;;;5091164;28;20484;-76
2021/08/13 00:23:01;;;;;;;3.38;1.83;;;20.60;58.60;;;;;;5072976;28;20077;-76
2021/08/13 00:25:26;;;;;;;6.28;1.90;;;20.50;59.10;;;;;;5072667;28;20043;-76
2021/08/13 00:27:52;;;;;;;2.97;1.40;;;20.50;59.10;;;;;;5090717;28;20032;-75
2021/08/13 00:30:18;;;;;;;2.17;1.15;;;20.40;59.00;;;;;;5072785;28;20079;-76
2021/08/13 00:32:44;;;;;;;2.50;1.17;;;20.40;59.00;;;;;;5091021;28;20500;-76
2021/08/13 00:35:09;;;;;;;2.47;1.40;;;20.30;58.90;;;;;;5090805;28;20060;-75
2021/08/13 00:37:37;;;;;;;2.55;1.23;;;20.40;59.50;;;;;;5072823;28;20401;-76
2021/08/13 00:40:04;;;;;;;3.20;1.35;;;20.30;59.60;;;;;;5072695;28;20038;-76
2021/08/13 00:42:30;;;;;;;3.88;1.45;;;20.30;59.80;;;;;;5072877;28;20028;-77
2021/08/13 00:44:56;;;;;;;2.58;1.27;;;20.30;61.00;;;;;;5090890;28;20031;-76
2021/08/13 00:47:21;;;;;;;4.85;1.50;;;20.20;62.20;;;;;;5090538;28;20032;-76
2021/08/13 00:49:47;;;;;;;5.15;1.60;;;20.20;62.20;;;;;;5072674;28;20024;-76
2021/08/13 00:52:14;;;;;;;3.78;1.80;;;20.10;63.40;;;;;;5072629;28;20057;-76
2021/08/13 00:54:40;;;;;;;4.45;1.35;;;20.00;64.30;;;;;;5090416;28;20020;-76
2021/08/13 00:57:06;;;;;;;6.78;1.58;;;19.90;65.10;;;;;;5072864;28;20115;-76
2021/08/13 00:59:32;;;;;;;4.78;1.85;;;19.80;65.50;;;;;;5072531;28;20107;-76
2021/08/13 01:01:58;;;;;;;4.43;1.45;;;19.80;65.00;;;;;;5090344;28;20036;-76
2021/08/13 01:04:24;;;;;;;3.17;1.55;;;19.80;64.70;;;;;;5072173;28;20071;-76
2021/08/13 01:06:50;;;;;;;3.85;1.33;;;19.80;63.90;;;;;;5071982;28;20758;-76
2021/08/13 01:09:15;;;;;;;3.33;1.90;;;19.90;63.20;;;;;;5072184;28;20020;-76
2021/08/13 01:12:03;;;;;;;3.60;1.98;;;20.00;62.60;;;;;;5072191;28;20028;-76
2021/08/13 01:14:56;;;;;;;4.72;1.75;;;20.10;62.20;;;;;;5090351;28;20503;-76
2021/08/13 01:17:22;;;;;;;2.10;1.30;;;20.10;62.10;;;;;;5072191;28;20122;-75
2021/08/13 01:20:06;;;;;;;2.65;1.48;;;20.10;62.10;;;;;;5090262;28;20221;-76
2021/08/13 01:22:38;;;;;;;3.05;1.50;;;20.20;62.30;;;;;;5072104;28;20077;-76
2021/08/13 01:25:05;;;;;;;3.42;1.33;;;20.20;61.90;;;;;;5089320;28;20518;-76
2021/08/13 01:27:35;;;;;;;2.63;1.23;;;20.20;61.80;;;;;;5071729;28;20059;-76
2021/08/13 01:30:11;;;;;;;4.97;1.30;;;20.20;61.00;;;;;;5089807;28;20024;-75
2021/08/13 01:32:38;;;;;;;2.63;1.42;;;20.10;60.60;;;;;;5071707;28;20039;-76
2021/08/13 01:35:29;;;;;;;3.38;1.25;;;20.10;60.80;;;;;;5089761;28;20047;-76
2021/08/13 01:37:59;;;;;;;2.00;1.20;;;20.20;61.50;;;;;;5051466;28;20028;-77
2021/08/13 01:40:26;;;;;;;2.78;1.52;;;20.10;62.20;;;;;;5071530;28;20063;-76
2021/08/13 01:42:53;;;;;;;2.50;1.27;;;20.10;62.50;;;;;;5071608;28;20479;-76
2021/08/13 01:45:22;;;;;;;2.80;1.30;;;20.00;63.10;;;;;;5071386;28;20024;-76
2021/08/13 01:47:50;;;;;;;3.47;1.65;;;19.90;63.70;;;;;;5089518;28;20032;-75
2021/08/13 01:50:16;;;;;;;2.95;1.58;;;19.80;64.20;;;;;;5071082;28;20028;-76
2021/08/13 01:52:41;;;;;;;4.60;1.27;;;19.80;64.40;;;;;;5071203;28;20028;-76
2021/08/13 01:55:08;;;;;;;2.17;1.15;;;19.80;65.20;;;;;;5089556;28;20156;-76
2021/08/13 01:57:34;;;;;;;3.30;1.63;;;19.70;64.60;;;;;;5070971;28;20093;-76
2021/08/13 02:00:00;;;;;;;3.83;1.65;;;19.70;65.00;;;;;;5070948;28;20564;-76
2021/08/13 02:02:26;;;;;;;2.63;1.50;;;19.70;65.60;;;;;;5071153;28;20475;-76
2021/08/13 02:04:53;;;;;;;3.08;1.40;;;19.60;65.90;;;;;;5089239;28;20027;-76
2021/08/13 02:07:20;;;;;;;3.45;1.73;;;19.50;66.30;;;;;;5070765;28;20124;-76
2021/08/13 02:09:48;;;;;;;1.90;1.10;;;19.50;65.90;;;;;;5089131;28;20485;-76
2021/08/13 02:12:14;;;;;;;3.13;1.88;;;19.50;64.60;;;;;;5070986;28;20032;-76
2021/08/13 02:14:40;;;;;;;5.93;1.83;;;19.50;64.60;;;;;;5089121;28;20034;-76
2021/08/13 02:17:16;;;;;;;2.05;1.20;;;19.50;64.30;;;;;;5070960;28;20070;-76
2021/08/13 02:20:05;;;;;;;2.72;1.30;;;19.50;64.00;;;;;;5089310;28;20820;-76
2021/08/13 02:22:30;;;;;;;3.28;2.00;;;19.60;64.20;;;;;;5089023;28;20055;-76
2021/08/13 02:24:56;;;;;;;2.25;1.42;;;19.50;64.40;;;;;;5070670;28;20074;-76
2021/08/13 02:27:25;;;;;;;3.72;1.70;;;19.50;64.90;;;;;;5088791;28;20024;-76
2021/08/13 02:29:51;;;;;;;3.30;1.67;;;19.50;65.50;;;;;;5070438;28;20035;-76
2021/08/13 02:32:17;;;;;;;7.00;1.95;;;19.50;65.40;;;;;;5070613;28;20020;-76
2021/08/13 02:34:43;;;;;;;2.33;1.63;;;19.40;66.00;;;;;;5078088;28;20048;-76
2021/08/13 02:37:27;;;;;;;3.03;1.63;;;19.30;66.10;;;;;;5091340;28;20036;-76
2021/08/13 02:40:04;;;;;;;2.35;1.58;;;19.30;66.10;;;;;;5090700;28;20121;-76
2021/08/13 02:42:48;;;;;;;2.75;1.65;;;19.20;66.10;;;;;;5108604;28;20023;-76
2021/08/13 02:45:16;;;;;;;3.58;1.73;;;19.20;66.10;;;;;;5090498;28;20106;-76
2021/08/13 02:47:44;;;;;;;4.97;1.83;;;19.20;66.30;;;;;;5090694;28;20034;-76
2021/08/13 02:50:11;;;;;;;2.92;2.00;;;19.20;66.60;;;;;;5090490;28;20414;-76
2021/08/13 02:52:45;;;;;;;3.38;2.10;;;19.20;66.90;;;;;;5108940;28;20115;-76
2021/08/13 02:55:14;;;;;;;2.40;1.77;;;19.10;67.10;;;;;;5108875;28;20085;-75
2021/08/13 02:57:42;;;;;;;6.25;2.05;;;19.10;66.80;;;;;;5090507;28;20028;-76
2021/08/13 03:00:08;;;;;;;2.55;1.60;;;19.10;66.90;;;;;;5090783;28;20035;-75
2021/08/13 03:02:36;;;;;;;3.53;2.00;;;19.10;67.00;;;;;;5108765;28;20038;-76
2021/08/13 03:05:04;;;;;;;7.45;2.13;;;19.10;67.10;;;;;;5089909;28;20028;-76
2021/08/13 03:07:30;;;;;;;3.08;2.20;;;19.10;67.00;;;;;;5108581;28;20042;-76
2021/08/13 03:09:57;;;;;;;2.88;2.15;;;19.20;67.10;;;;;;5108555;28;20023;-75
2021/08/13 03:12:23;;;;;;;2.92;1.80;;;19.20;67.30;;;;;;5090352;28;20024;-75
2021/08/13 03:14:50;;;;;;;3.20;2.05;;;19.20;67.30;;;;;;5090087;28;20032;-76
2021/08/13 03:17:17;;;;;;;2.85;1.45;;;19.20;66.50;;;;;;5108777;28;20027;-76
2021/08/13 03:19:43;;;;;;;3.92;1.92;;;19.30;66.80;;;;;;5090196;28;20027;-76
2021/08/13 03:22:09;;;;;;;4.88;2.53;;;19.30;66.80;;;;;;5108613;28;20038;-75
2021/08/13 03:24:36;;;;;;;14.32;2.28;;;19.50;66.80;;;;;;5108760;28;20069;-76
2021/08/13 03:27:02;;;;;;;3.53;2.15;;;19.50;65.70;;;;;;5108949;28;20040;-76
2021/08/13 03:29:28;;;;;;;4.25;2.30;;;19.70;65.20;;;;;;5108387;28;20032;-76
2021/08/13 03:31:58;;;;;;;4.25;2.17;;;19.80;65.30;;;;;;5108393;28;20030;-76
2021/08/13 03:34:24;;;;;;;3.72;2.40;;;19.90;64.50;;;;;;5089703;28;20492;-75
2021/08/13 03:36:49;;;;;;;4.78;2.38;;;20.10;63.90;;;;;;5108321;28;20081;-76
2021/08/13 03:39:15;;;;;;;2.80;1.88;;;20.20;63.40;;;;;;5090079;28;20403;-76
2021/08/13 03:41:41;;;;;;;4.60;2.00;;;20.20;63.10;;;;;;5108476;28;20080;-77
2021/08/13 03:44:07;;;;;;;3.72;2.42;;;20.30;63.30;;;;;;5108155;28;20036;-76
2021/08/13 03:46:32;;;;;;;8.52;2.63;;;20.30;62.90;;;;;;5108240;28;20031;-76
2021/08/13 03:48:58;;;;;;;2.97;1.70;;;20.30;62.90;;;;;;5111888;28;20046;-76
2021/08/13 03:51:24;;;;;;;3.65;2.20;;;20.30;63.40;;;;;;5112391;28;20023;-76
2021/08/13 03:53:49;;;;;;;3.08;1.73;;;20.30;63.30;;;;;;5093753;28;20039;-76
2021/08/13 03:56:15;;;;;;;3.75;2.15;;;20.30;63.20;;;;;;5093733;28;20416;-76
2021/08/13 03:58:43;;;;;;;3.22;2.30;;;20.30;63.40;;;;;;5111959;28;20036;-76
2021/08/13 04:01:09;;;;;;;4.13;2.13;;;20.30;63.40;;;;;;5093774;28;20028;-76
2021/08/13 04:03:35;;;;;;;6.50;2.40;;;20.30;64.00;;;;;;5093675;28;20214;-75
2021/08/13 04:06:01;;;;;;;3.22;2.00;;;20.30;64.30;;;;;;5111997;28;20031;-76
2021/08/13 04:08:27;;;;;;;3.22;2.10;;;20.30;63.60;;;;;;5093940;28;20411;-76
2021/08/13 04:10:52;;;;;;;4.13;1.98;;;20.40;63.90;;;;;;5093536;28;20081;-75
2021/08/13 04:13:18;;;;;;;3.75;2.00;;;20.40;64.00;;;;;;5111601;28;20030;-76
2021/08/13 04:15:44;;;;;;;6.85;2.15;;;20.40;63.80;;;;;;5111823;28;20027;-76
2021/08/13 04:18:11;;;;;;;3.33;1.85;;;20.40;63.40;;;;;;5093007;28;20019;-75
2021/08/13 04:20:38;;;;;;;2.63;1.80;;;20.50;63.30;;;;;;5093250;28;20040;-76
2021/08/13 04:23:05;;;;;;;6.88;2.60;;;20.60;63.60;;;;;;5093079;28;20019;-75
2021/08/13 04:25:30;;;;;;;3.53;2.00;;;20.60;63.50;;;;;;5111535;28;20130;-75
2021/08/13 04:27:56;;;;;;;5.93;2.20;;;20.70;63.40;;;;;;5111448;28;20111;-76
2021/08/13 04:30:23;;;;;;;6.13;3.05;;;20.80;62.80;;;;;;5111600;28;20032;-76
2021/08/13 04:32:48;;;;;;;7.20;2.05;;;21.00;62.30;;;;;;5093186;28;20024;-76
2021/08/13 04:35:14;;;;;;;7.22;1.98;;;21.10;61.70;;;;;;5092932;28;20050;-76
2021/08/13 04:37:40;;;;;;;2.75;1.98;;;21.40;60.00;;;;;;5093390;28;20027;-75
2021/08/13 04:40:07;;;;;;;9.07;2.38;;;21.60;59.70;;;;;;5111045;28;20028;-75
2021/08/13 04:42:32;;;;;;;6.95;2.35;;;21.70;60.60;;;;;;5093159;28;20016;-76
2021/08/13 04:44:58;;;;;;;3.22;2.28;;;21.90;59.20;;;;;;5111226;28;20038;-76
2021/08/13 04:47:23;;;;;;;3.67;2.35;;;22.00;58.90;;;;;;5092664;28;20832;-76
2021/08/13 04:49:49;;;;;;;2.75;1.83;;;22.10;59.00;;;;;;5092746;28;20487;-76
2021/08/13 04:52:16;;;;;;;6.22;2.72;;;22.20;59.50;;;;;;5092849;28;20555;-77
2021/08/13 04:54:46;;;;;;;5.13;1.98;;;22.30;59.30;;;;;;5092527;28;20027;-76
2021/08/13 04:57:12;;;;;;;5.15;2.10;;;22.30;59.10;;;;;;5092639;28;20035;-76
2021/08/13 04:59:37;;;;;;;2.67;1.77;;;22.50;59.30;;;;;;5091298;28;20540;-73
2021/08/13 05:02:03;;;;;;;3.42;2.40;;;22.80;58.00;;;;;;5092399;28;20034;-73
2021/08/13 05:04:29;;;;;;;3.58;2.30;;;23.10;57.70;;;;;;5092826;28;20045;-74
2021/08/13 05:06:54;;;;;;;8.60;2.22;;;23.30;57.70;;;;;;5092666;28;20368;-74
2021/08/13 05:09:20;;;;;;;3.78;1.98;;;23.40;57.40;;;;;;5110347;28;20063;-74
2021/08/13 05:11:46;;;;;;;6.57;1.95;;;23.50;56.00;;;;;;5092387;28;20020;-74
2021/08/13 05:14:11;;;;;;;5.47;2.30;;;23.50;55.90;;;;;;5110508;28;20024;-74
2021/08/13 05:16:37;;;;;;;2.80;1.70;;;23.50;56.00;;;;;;5092161;28;20023;-75
2021/08/13 05:19:03;;;;;;;3.15;2.13;;;23.40;55.80;;;;;;5110370;28;20035;-73
2021/08/13 05:21:28;;;;;;;3.10;2.10;;;23.50;55.70;;;;;;5110323;28;20031;-73
2021/08/13 05:23:54;;;;;;;2.97;1.65;;;23.60;55.70;;;;;;5091948;28;20089;-72
2021/08/13 05:26:20;;;;;;;3.75;2.25;;;23.80;54.90;;;;;;5110075;28;20024;-72
2021/08/13 05:28:45;;;;;;;3.75;2.20;;;24.00;54.10;;;;;;5110079;28;20551;-74
2021/08/13 05:31:11;;;;;;;3.67;2.03;;;24.10;54.30;;;;;;5091740;28;20455;-73
2021/08/13 05:33:37;;;;;;;3.55;2.03;;;24.30;53.90;;;;;;5091708;28;20460;-74
2021/08/13 05:36:02;;;;;;;7.53;2.00;;;24.50;53.00;;;;;;5091158;28;20489;-73
2021/08/13 05:38:28;;;;;;;3.08;1.65;;;24.70;53.00;;;;;;5071724;28;20145;-73
2021/08/13 05:40:54;;;;;;;2.55;1.73;;;25.00;52.10;;;;;;5071582;28;20024;-76
2021/08/13 05:43:19;;;;;;;7.45;1.67;;;25.10;51.60;;;;;;5071721;28;20081;-75
2021/08/13 05:45:45;;;;;;;3.70;1.92;;;25.10;51.10;;;;;;5071402;28;20455;-77
2021/08/13 05:48:11;;;;;;;3.92;1.75;;;25.10;51.00;;;;;;5071049;28;20067;-76
2021/08/13 05:50:37;;;;;;;3.33;2.38;;;25.00;51.40;;;;;;5071489;28;20652;-76
2021/08/13 05:53:03;;;;;;;4.93;2.25;;;24.90;50.90;;;;;;5071366;28;20462;-76
2021/08/13 05:55:29;;;;;;;3.10;1.77;;;25.00;51.30;;;;;;5071202;28;20020;-76
2021/08/13 05:57:54;;;;;;;3.33;1.85;;;25.20;50.60;;;;;;5070586;28;20440;-76
2021/08/13 06:00:20;;;;;;;6.78;2.05;;;25.70;50.10;;;;;;5071032;28;20395;-74
2021/08/13 06:02:59;;;;;;;3.72;2.03;;;26.70;48.70;;;;;;5089293;28;20028;-74
2021/08/13 06:05:26;;;;;;;5.45;2.17;;;28.00;45.50;;;;;;5070825;28;20830;-74
2021/08/13 06:07:51;;;;;;;4.43;2.38;;;28.10;45.00;;;;;;5089115;28;20032;-73
2021/08/13 06:10:18;;;;;;;5.75;2.45;;;28.50;43.40;;;;;;5089056;28;20038;-76
2021/08/13 06:12:44;;;;;;;5.75;2.40;;;28.80;42.70;;;;;;5070851;28;20496;-76
2021/08/13 06:15:10;;;;;;;4.82;2.38;;;28.70;42.20;;;;;;5089217;28;20030;-74
2021/08/13 06:17:36;;;;;;;4.70;2.28;;;28.20;43.20;;;;;;5088930;28;20059;-74
2021/08/13 06:20:02;;;;;;;8.85;2.47;;;27.80;44.40;;;;;;5088761;28;20097;-74
2021/08/13 06:22:28;;;;;;;7.03;2.45;;;27.50;44.80;;;;;;5070484;28;20024;-74
2021/08/13 06:24:54;;;;;;;8.30;1.80;;;27.10;45.30;;;;;;5088865;28;20476;-73
2021/08/13 06:27:19;;;;;;;4.43;2.55;;;26.60;46.30;;;;;;5088677;28;20032;-76
2021/08/13 06:29:45;;;;;;;6.88;2.00;;;26.50;46.70;;;;;;5070569;28;20035;-76
2021/08/13 06:32:10;;;;;;;9.70;2.33;;;26.40;47.30;;;;;;5088594;28;20099;-76
2021/08/13 06:34:36;;;;;;;5.60;2.75;;;26.70;46.50;;;;;;5076677;28;20052;-74
2021/08/13 06:37:02;;;;;;;3.90;2.40;;;27.50;45.70;;;;;;5109106;28;20107;-73
2021/08/13 06:39:27;;;;;;;6.32;3.13;;;28.20;44.40;;;;;;5090828;28;20122;-77
2021/08/13 06:41:53;;;;;;;7.88;2.80;;;28.90;43.70;;;;;;5090559;28;20031;-77
2021/08/13 06:44:19;;;;;;;8.77;2.72;;;29.10;42.40;;;;;;5108876;28;20107;-77
2021/08/13 06:46:44;;;;;;;4.15;2.45;;;28.90;42.40;;;;;;5108857;28;20045;-77
2021/08/13 06:49:10;;;;;;;6.55;2.25;;;29.30;41.90;;;;;;5109012;28;20035;-77
2021/08/13 06:51:35;;;;;;;8.82;2.03;;;29.20;41.60;;;;;;5090665;28;20528;-77
2021/08/13 06:54:01;;;;;;;5.97;2.33;;;28.60;42.50;;;;;;5108841;28;20027;-73
2021/08/13 06:56:26;;;;;;;9.65;2.50;;;28.20;43.50;;;;;;5090947;28;20031;-74
2021/08/13 06:58:55;;;;;;;3.17;1.60;;;28.30;44.00;;;;;;5109041;28;20504;-74
2021/08/13 07:01:21;;;;;;;8.35;2.55;;;28.80;43.80;;;;;;5108857;28;20023;-77
2021/08/13 07:03:47;;;;;;;4.28;2.28;;;29.70;42.30;;;;;;5108759;28;20081;-74
2021/08/13 07:06:12;;;;;;;3.45;2.42;;;30.40;40.70;;;;;;5108486;28;20106;-74
2021/08/13 07:08:38;;;;;;;8.45;2.85;;;31.00;40.10;;;;;;5108808;28;20070;-74
2021/08/13 07:11:04;;;;;;;7.53;2.00;;;31.30;39.40;;;;;;5108526;28;20081;-74
2021/08/13 07:13:29;;;;;;;6.20;2.80;;;31.30;38.70;;;;;;5108550;28;20077;-75
2021/08/13 07:15:55;;;;;;;4.32;1.98;;;31.30;38.40;;;;;;5108442;28;20032;-74
2021/08/13 07:18:21;;;;;;;2.83;2.00;;;31.40;37.60;;;;;;5108554;28;20020;-74
2021/08/13 07:20:46;;;;;;;4.68;2.22;;;31.50;37.10;;;;;;5090281;28;20051;-74
2021/08/13 07:23:12;;;;;;;6.25;2.10;;;31.00;37.30;;;;;;5110910;28;20484;-74
2021/08/13 07:25:37;;;;;;;5.93;2.60;;;31.10;37.30;;;;;;5112603;28;20055;-74
2021/08/13 07:28:03;;;;;;;4.63;2.20;;;30.90;37.80;;;;;;5094189;28;20058;-74
2021/08/13 07:30:29;;;;;;;7.20;2.22;;;30.90;37.90;;;;;;5112579;28;20014;-74
2021/08/13 07:32:55;;;;;;;5.50;2.53;;;30.60;37.60;;;;;;5094151;28;20096;-74
2021/08/13 07:35:20;;;;;;;5.80;2.33;;;30.50;38.70;;;;;;5099738;28;20072;-74
2021/08/13 07:37:46;;;;;;;4.80;2.47;;;30.50;38.30;;;;;;5092124;28;20028;-74
2021/08/13 07:40:12;;;;;;;3.83;2.47;;;30.60;38.80;;;;;;5091973;28;20435;-74
2021/08/13 07:42:40;;;;;;;5.63;2.70;;;31.00;38.50;;;;;;5091936;28;20396;-75
2021/08/13 07:45:06;;;;;;;4.25;2.42;;;31.00;37.90;;;;;;5091753;28;20107;-74
2021/08/13 07:47:32;;;;;;;3.58;2.33;;;31.30;37.60;;;;;;5091614;28;20044;-74
2021/08/13 07:49:58;;;;;;;4.45;2.38;;;31.50;36.70;;;;;;5073689;28;20496;-74
2021/08/13 07:52:24;;;;;;;6.45;2.97;;;31.70;36.80;;;;;;5091906;28;20067;-74
2021/08/13 07:54:49;;;;;;;5.60;1.55;;;31.70;36.30;;;;;;5091834;28;20031;-74
2021/08/13 07:57:16;;;;;;;4.00;2.00;;;31.70;37.60;;;;;;5091749;28;20111;-74
2021/08/13 07:59:42;;;;;;;3.67;2.30;;;31.50;37.00;;;;;;5091759;28;20047;-73
2021/08/13 08:02:07;;;;;;;3.47;2.28;;;31.30;36.50;;;;;;5091492;28;20076;-74
2021/08/13 08:04:33;;;;;;;12.05;2.25;;;31.20;36.90;;;;;;5091599;28;20032;-74
2021/08/13 08:06:59;;;;;;;5.93;2.28;;;31.50;37.10;;;;;;5091487;28;20105;-74
2021/08/13 08:09:25;;;;;;;4.70;2.42;;;31.30;37.00;;;;;;5073226;28;20036;-74
2021/08/13 08:11:52;;;;;;;3.60;2.05;;;31.10;37.30;;;;;;5091737;28;20023;-73
2021/08/13 08:14:18;;;;;;;4.10;2.13;;;31.60;37.90;;;;;;5073152;28;20040;-75
2021/08/13 08:16:44;;;;;;;6.03;2.42;;;32.10;36.20;;;;;;5091573;28;20069;-74
2021/08/13 08:19:10;;;;;;;7.60;2.05;;;32.10;36.80;;;;;;5072945;28;20032;-74
2021/08/13 08:21:36;;;;;;;9.70;3.38;;;31.70;36.40;;;;;;5090963;28;20053;-74
2021/08/13 08:24:02;;;;;;;5.68;2.70;;;31.60;37.40;;;;;;5090928;28;20436;-74
2021/08/13 08:26:27;;;;;;;8.48;2.30;;;32.00;37.10;;;;;;5072749;28;20028;-74
2021/08/13 08:28:53;;;;;;;6.40;2.80;;;32.70;35.50;;;;;;5091204;28;20028;-74
2021/08/13 08:31:19;;;;;;;7.72;2.67;;;33.00;35.70;;;;;;5072944;28;20020;-74
2021/08/13 08:33:44;;;;;;;6.90;2.40;;;33.00;35.20;;;;;;5072827;28;20396;-74
2021/08/13 08:36:10;;;;;;;5.35;1.90;;;32.30;36.00;;;;;;5110496;28;20075;-75
2021/08/13 08:38:36;;;;;;;9.30;2.40;;;32.30;38.30;;;;;;5111294;28;20040;-75
2021/08/13 08:41:04;;;;;;;3.15;2.33;;;32.00;37.30;;;;;;5111286;28;20030;-75
2021/08/13 08:43:29;;;;;;;5.45;2.40;;;31.70;38.00;;;;;;5093092;28;20127;-77
2021/08/13 08:45:56;;;;;;;6.32;2.85;;;31.20;38.30;;;;;;5111046;28;20095;-76
2021/08/13 08:48:23;;;;;;;6.60;1.90;;;30.60;38.80;;;;;;5092703;28;20521;-77
2021/08/13 08:50:49;;;;;;;5.05;2.13;;;30.60;39.20;;;;;;5092750;28;20391;-77
2021/08/13 08:53:25;;;;;;;5.70;1.88;;;30.50;39.70;;;;;;5111010;28;20032;-77
2021/08/13 08:55:52;;;;;;;11.38;1.90;;;30.90;36.60;;;;;;5092487;28;20030;-77
2021/08/13 08:58:19;;;;;;;9.43;2.10;;;31.10;36.50;;;;;;5110963;28;20115;-76
2021/08/13 09:00:46;;;;;;;10.68;1.70;;;31.40;36.60;;;;;;5092611;28;20028;-77
2021/08/13 09:03:12;;;;;;;3.63;1.90;;;31.80;36.70;;;;;;5092600;28;20031;-74
2021/08/13 09:05:38;;;;;;;7.20;2.15;;;31.80;35.30;;;;;;5110786;28;20380;-74
2021/08/13 09:08:04;;;;;;;3.10;1.80;;;31.60;36.10;;;;;;5110671;28;20097;-77
2021/08/13 09:10:30;;;;;;;8.45;2.25;;;31.40;37.20;;;;;;5092421;28;20019;-77
2021/08/13 09:12:55;;;;;;;4.68;2.03;;;31.30;36.70;;;;;;5092512;28;20403;-77
2021/08/13 09:15:29;;;;;;;10.68;2.10;;;31.40;37.00;;;;;;5110781;28;20020;-77
2021/08/13 09:18:14;;;;;;;7.75;2.65;;;31.30;36.50;;;;;;5092356;28;20062;-77
2021/08/13 09:21:00;;;;;;;4.22;1.75;;;31.40;36.10;;;;;;5110610;28;20024;-77
2021/08/13 09:23:39;;;;;;;8.85;1.70;;;31.40;36.20;;;;;;5110430;28;20047;-77
2021/08/13 09:26:08;;;;;;;6.72;1.95;;;31.10;36.70;;;;;;5091885;28;20404;-77
2021/08/13 09:28:52;;;;;;;4.68;1.77;;;30.80;37.10;;;;;;5092100;28;20110;-77
2021/08/13 09:31:20;;;;;;;7.72;1.65;;;30.80;37.70;;;;;;5110198;28;20031;-77
2021/08/13 09:33:51;;;;;;;13.98;2.83;;;31.10;37.40;;;;;;5110250;28;20420;-77
2021/08/13 09:36:24;;;;;;;5.72;2.95;;;31.60;37.30;;;;;;5110090;28;20561;-78
2021/08/13 09:39:11;;;;;;;3.40;1.42;;;32.00;36.00;;;;;;5091629;28;20038;-74
2021/08/13 09:41:44;;;;;;;3.65;2.22;;;32.00;36.70;;;;;;5109852;28;20415;-74
2021/08/13 09:44:09;;;;;;;9.18;2.00;;;32.20;36.10;;;;;;5091503;28;20085;-74
2021/08/13 09:46:35;;;;;;;7.78;2.03;;;32.30;36.90;;;;;;5090696;28;20031;-75
2021/08/13 09:49:15;;;;;;;9.50;2.50;;;32.60;35.70;;;;;;5110083;28;20045;-74
2021/08/13 09:51:41;;;;;;;5.18;2.15;;;32.80;35.10;;;;;;5091579;28;20031;-74
2021/08/13 09:54:08;;;;;;;3.13;1.90;;;32.80;35.00;;;;;;5109683;28;20023;-73
2021/08/13 09:56:42;;;;;;;5.03;2.00;;;32.80;34.50;;;;;;5109777;28;20035;-74
2021/08/13 09:59:14;;;;;;;3.73;2.23;;;33.00;35.00;;;;;;5091721;28;20016;-74
2021/08/13 10:01:42;;;;;;;4.88;2.05;;;33.40;34.80;;;;;;5091442;28;20078;-74
2021/08/13 10:04:08;;;;;;;7.97;2.58;;;33.50;35.10;;;;;;5109597;28;20028;-74
2021/08/13 10:06:35;;;;;;;9.55;2.63;;;33.90;33.60;;;;;;5109645;28;20484;-74
2021/08/13 10:09:02;;;;;;;4.03;2.05;;;34.00;33.60;;;;;;5109716;28;20124;-75
2021/08/13 10:11:28;;;;;;;8.30;2.28;;;33.80;34.10;;;;;;5091131;28;20797;-77
2021/08/13 10:13:55;;;;;;;4.85;2.35;;;34.30;33.50;;;;;;5091291;28;20028;-74
2021/08/13 10:16:25;;;;;;;2.92;1.88;;;34.20;32.90;;;;;;5109410;28;20116;-74
2021/08/13 10:18:55;;;;;;;7.35;2.00;;;33.80;33.90;;;;;;5090870;28;20412;-74
2021/08/13 10:21:22;;;;;;;3.08;1.63;;;33.20;34.60;;;;;;5109451;28;20043;-75
2021/08/13 10:23:53;;;;;;;3.08;2.05;;;32.90;35.30;;;;;;5109151;28;20096;-76
2021/08/13 10:26:23;;;;;;;6.22;2.47;;;32.50;36.00;;;;;;5109240;28;20035;-77
2021/08/13 10:28:51;;;;;;;7.00;1.92;;;32.50;36.70;;;;;;5109365;28;20027;-77
2021/08/13 10:31:19;;;;;;;10.63;2.05;;;32.60;35.90;;;;;;5109177;28;20035;-77
2021/08/13 10:33:46;;;;;;;7.22;1.90;;;32.60;34.90;;;;;;5090817;28;20028;-77
2021/08/13 10:36:17;;;;;;;4.90;2.25;;;32.60;35.80;;;;;;5090272;28;20508;-77
2021/08/13 10:38:47;;;;;;;5.57;2.13;;;32.70;35.70;;;;;;5090780;28;20131;-76
2021/08/13 10:41:13;;;;;;;3.20;2.05;;;32.80;35.90;;;;;;5109016;28;20031;-77
2021/08/13 10:43:42;;;;;;;3.38;2.00;;;32.50;35.40;;;;;;5090477;28;20027;-77
2021/08/13 10:46:10;;;;;;;5.85;1.90;;;32.10;36.30;;;;;;5090552;28;20114;-77
2021/08/13 10:48:40;;;;;;;5.82;1.65;;;31.80;37.30;;;;;;5090763;28;20092;-77
2021/08/13 10:51:06;;;;;;;4.65;1.48;;;31.60;37.10;;;;;;5090962;28;20118;-77
2021/08/13 10:53:37;;;;;;;3.40;2.15;;;31.20;37.80;;;;;;5108861;28;20123;-77
2021/08/13 10:56:05;;;;;;;2.38;1.60;;;31.30;37.90;;;;;;5090012;28;20503;-74
2021/08/13 10:58:37;;;;;;;5.97;2.00;;;31.00;37.90;;;;;;5107814;28;20031;-74
2021/08/13 11:01:07;;;;;;;2.78;1.90;;;31.00;39.00;;;;;;5090293;28;20031;-74
2021/08/13 11:03:41;;;;;;;5.05;1.92;;;30.80;38.30;;;;;;5090270;28;20028;-75
2021/08/13 11:06:07;;;;;;;3.88;2.10;;;30.70;39.00;;;;;;5090478;28;20365;-75
2021/08/13 11:08:54;;;;;;;6.45;2.17;;;30.70;39.20;;;;;;5089746;28;20080;-74
2021/08/13 11:11:19;;;;;;;5.47;1.70;;;31.00;39.70;;;;;;5090102;28;20020;-74
2021/08/13 11:13:48;;;;;;;6.13;1.95;;;31.20;39.50;;;;;;5108653;28;20180;-74
2021/08/13 11:16:30;;;;;;;3.45;1.90;;;31.30;39.20;;;;;;5108537;28;20407;-74
2021/08/13 11:19:10;;;;;;;3.85;2.00;;;31.50;39.00;;;;;;5090068;28;20049;-75
2021/08/13 11:21:46;;;;;;;5.22;2.22;;;31.50;38.70;;;;;;5090250;28;20024;-74
2021/08/13 11:24:13;;;;;;;8.90;2.15;;;31.60;37.40;;;;;;5081827;28;20066;-74
2021/08/13 11:26:50;;;;;;;2.70;1.80;;;31.50;37.60;;;;;;5090103;28;20066;-74
2021/08/13 11:29:34;;;;;;;4.60;2.20;;;31.60;38.90;;;;;;5108387;28;20036;-75
2021/08/13 11:32:02;;;;;;;6.60;2.38;;;31.70;38.70;;;;;;5090263;28;20381;-74
2021/08/13 11:34:48;;;;;;;3.22;1.90;;;31.80;38.40;;;;;;5089991;28;20031;-74
2021/08/13 11:37:41;;;;;;;5.47;2.78;;;31.70;37.40;;;;;;5108559;28;20039;-74
2021/08/13 11:40:07;;;;;;;6.38;2.20;;;31.40;37.00;;;;;;5090026;28;20492;-74
2021/08/13 11:42:35;;;;;;;5.57;1.88;;;31.30;38.80;;;;;;5108391;28;20023;-74
2021/08/13 11:45:09;;;;;;;4.45;2.63;;;31.30;38.40;;;;;;5090013;28;20032;-74
2021/08/13 11:47:35;;;;;;;6.20;2.10;;;31.50;38.70;;;;;;5089978;28;20028;-74
2021/08/13 11:50:05;;;;;;;8.65;2.50;;;31.80;38.10;;;;;;5089789;28;20028;-73
2021/08/13 11:52:32;;;;;;;8.60;2.65;;;32.10;38.00;;;;;;5108344;28;20572;-75
2021/08/13 11:55:33;;;;;;;4.00;2.42;;;32.30;37.30;;;;;;5108224;28;20053;-74
2021/08/13 11:58:02;;;;;;;5.35;2.20;;;32.40;37.30;;;;;;5089820;28;20485;-74
2021/08/13 12:00:31;;;;;;;5.10;2.08;;;32.40;37.90;;;;;;5090025;28;20482;-74
2021/08/13 12:03:07;;;;;;;4.25;2.00;;;32.50;38.30;;;;;;5108087;28;20024;-74
2021/08/13 12:05:38;;;;;;;3.08;2.10;;;32.70;37.50;;;;;;5089815;28;20024;-77
2021/08/13 12:08:06;;;;;;;3.55;1.92;;;32.70;37.50;;;;;;5108189;28;20041;-77
2021/08/13 12:10:33;;;;;;;4.18;2.35;;;32.90;36.90;;;;;;5093585;28;20581;-77
2021/08/13 12:13:06;;;;;;;4.53;1.83;;;33.10;36.60;;;;;;5111738;28;20491;-77
2021/08/13 12:15:34;;;;;;;10.48;2.95;;;33.10;36.50;;;;;;5093435;28;20058;-77
2021/08/13 12:18:01;;;;;;;4.90;2.25;;;33.10;35.90;;;;;;5111597;28;20031;-77
2021/08/13 12:20:28;;;;;;;3.05;2.20;;;32.80;36.00;;;;;;5111781;28;20015;-77
2021/08/13 12:23:08;;;;;;;5.55;2.22;;;32.80;36.60;;;;;;5111826;28;20031;-77
2021/08/13 12:25:42;;;;;;;10.65;2.95;;;32.50;36.50;;;;;;5093302;28;20157;-77
2021/08/13 12:28:10;;;;;;;3.35;2.20;;;32.40;36.90;;;;;;5111380;28;20059;-77
2021/08/13 12:30:36;;;;;;;3.63;2.30;;;32.30;37.40;;;;;;5093481;28;20035;-77
2021/08/13 12:33:04;;;;;;;8.07;2.13;;;32.30;37.40;;;;;;5093107;28;20031;-77
2021/08/13 12:35:39;;;;;;;6.03;2.10;;;32.00;37.10;;;;;;5111243;28;20515;-77
2021/08/13 12:38:05;;;;;;;4.70;2.35;;;32.00;38.10;;;;;;5111189;28;20034;-77
2021/08/13 12:40:39;;;;;;;3.03;2.25;;;31.80;38.30;;;;;;5111495;28;20032;-74
2021/08/13 12:43:05;;;;;;;12.48;2.35;;;31.80;38.70;;;;;;5111354;28;20030;-74
2021/08/13 12:45:31;;;;;;;9.20;2.15;;;32.00;38.70;;;;;;5111200;28;20019;-74
2021/08/13 12:47:56;;;;;;;7.72;1.98;;;32.20;38.10;;;;;;5111059;28;20040;-76
2021/08/13 12:50:23;;;;;;;5.22;2.22;;;32.40;37.90;;;;;;5092902;28;20024;-77